Tiempo atmosférico en la estación meteorológica de Salobreña, Granada (20 m.)



Fecha
DESCASC
Temp. máxima en grados centígrados (hora)
DESCASC
Temp. mínima en grados centígrados (hora)
DESCASC
Temp. media en grados centígrados
DESCASC
Racha de viento máxima en m/sg (hora)
DESCASC
Velocidad máxima media en intervalos de 10 minutos(hora)
DESCASC
Precipitaciones diarias en mm
DESCASC
Precipitaciones de 00:00 a 06:00 en mm
DESCASC
Precipitaciones de 06:00 a 12:00 en mm
DESCASC
Precipitaciones de 12:00 a 18:00 en mm
DESCASC
Precipitaciones de 18:00 a 24:00 en mm
DESCASC
22-04-2019 20.7 (17:40) 10.9 (07:40) 15.8 10.28 (17:30) 6.67 (17:30) 0 0 0 0 0
21-04-2019 16.9 (16:10) 13.4 (08:00) 15.1 6.67 (16:50) 3.61 (15:40) 2.6 0.4 1.4 0.8 0
20-04-2019 19.8 (13:00) 11.3 (06:30) 15.5 6.94 (13:20) 4.17 (13:20) 0 0 0 0 0
19-04-2019 18.6 (16:10) 10.3 (04:50) 14.5 8.89 (12:00) 5.28 (08:30) 0 0 0 0 0
18-04-2019 17.6 (14:30) 12.1 (00:00) 14.9 9.17 (07:00) 4.72 (05:30) 16 1.2 14.8 0 0
17-04-2019 22.9 (14:40) 10.5 (00:00) 16.7 10.83 (19:40) 6.11 (15:00) 0 0 0 0 0
16-04-2019 21.4 (18:20) 11.5 (00:00) 16.4 10 (03:30) 6.67 (12:40) 0 0 0 0 0
15-04-2019 24.4 (15:50) 11.9 (00:00) 18.1 9.72 (21:20) 5.28 (20:40) 0 0 0 0 0
14-04-2019 21.8 (13:00) 10.9 (00:00) 16.3 8.06 (04:50) 5 (04:50) 0 0 0 0 0
13-04-2019 21.4 (11:00) 8.8 (00:00) 15.1 9.44 (09:10) 6.39 (09:30) 0 0 0 0 0
12-04-2019 21.7 (11:00) 11.3 (00:00) 16.5 10 (08:00) 5 (05:10) 0 0 0 0 0
11-04-2019 20.8 (11:30) 9.5 (00:00) 15.1 13.89 (15:30) 6.67 (18:00) 0 0 0 0 0
10-04-2019 21.6 (16:00) 12.1 (00:00) 16.9 15.56 (10:30) 8.89 (11:10) 0 0 0 0 0
09-04-2019 20.3 (13:00) 11.9 (00:00) 16.1 14.17 (14:40) 7.78 (16:50) 0 0 0 0 0
08-04-2019 19.8 (17:20) 10.4 (00:00) 15.1 13.61 (19:10) 7.22 (12:50) 0 0 0 0 0
07-04-2019 18.9 (15:20) 9.6 (00:00) 14.3 13.61 (11:00) 7.78 (11:10) 0.8 0.8 0 0 0
06-04-2019 16.2 (12:20) 6.8 (00:00) 11.5 13.89 (14:40) 7.5 (14:40) 3.2 0 0 2 1.2
05-04-2019 15.8 (18:20) 7.3 (00:00) 11.6 14.72 (11:20) 8.33 (11:30) 17.2 0 8.6 8.6 0
04-04-2019 19.3 (14:00) 13.4 (00:00) 16.3 11.11 (23:20) 6.11 (11:50) 0 0 0 0 0
03-04-2019 20 (14:30) 9.1 (00:00) 14.6 11.11 (19:20) 6.11 (18:10) 0 0 0 0 0
02-04-2019 19.4 (15:10) 9.5 (00:00) 14.4 9.72 (19:30) 5.56 (19:30) 0 0 0 0 0
01-04-2019 19.2 (18:10) 10.9 (00:00) 15.1 11.11 (17:10) 5 (16:10) 0 0 0 0 0
31-03-2019 16.4 (17:30) 13.5 (00:00) 14.9 8.61 (20:30) 3.89 (19:50) 4.2 1.4 1.2 1.6 0
30-03-2019 19.4 (14:30) 9.3 (00:00) 14.3 12.22 (13:50) 7.5 (13:40) 1.2 0 0 0 1.2
29-03-2019 19.3 (13:00) 7.3 (00:00) 13.3 11.11 (13:20) 6.67 (13:20) 0 0 0 0 0
28-03-2019 18.9 (13:50) 8 (00:00) 13.4 16.67 (13:10) 8.33 (13:10) 0 0 0 0 0
27-03-2019 20 (11:50) 6.7 (00:00) 13.3 13.33 (14:40) 7.78 (15:30) 0 0 0 0 0

Gráficas

Temp. máximas Temp. mínimas Temp. medias Precipitaciones Rachas de viento máximas Velocidades máximas media en intervalos de 10 minutos

Datos horarios

Fecha y hora oficial Temperatura (ºC) Velocidad del viento (km/h) Dirección del viento Racha (km/h) Dirección de racha Precipitación (mm) Presión (hPa) Tendencia (hPa) Humedad (%)
2019-04-25 23:00:00 17.3 16 Noroeste 30 Noroeste 0 -- -- 56
2019-04-25 22:00:00 16.2 9 Oeste 26 Oeste 0 -- -- 82
2019-04-25 21:00:00 16.7 16 Oeste 37 Oeste 0 -- -- 80
2019-04-25 20:00:00 17.6 23 Oeste 41 Oeste 0 -- -- 76
2019-04-25 19:00:00 18.2 21 Oeste 45 Oeste 0 -- -- 72
2019-04-25 18:00:00 18.1 31 Oeste 50 Oeste 0 -- -- 74
2019-04-25 17:00:00 18.9 20 Oeste 44 Oeste 0 -- -- 70
2019-04-25 16:00:00 18.7 20 Oeste 41 Sudoeste 0 -- -- 70
2019-04-25 15:00:00 19.8 16 Noroeste 36 Sudoeste 0 -- -- 71
2019-04-25 14:00:00 17.8 20 Oeste 39 Sudoeste 0 -- -- 83
2019-04-25 13:00:00 16.7 10 Oeste 32 Oeste 0 -- -- 94
2019-04-25 12:00:00 16.5 16 Oeste 31 Oeste 0.2 -- -- 94
2019-04-25 11:00:00 15.9 9 Oeste 27 Oeste 1 -- -- 93
2019-04-25 10:00:00 15.8 14 Oeste 31 Oeste 0.6 -- -- 92
2019-04-25 09:00:00 16.2 6 Oeste 32 Oeste 0 -- -- 88
2019-04-25 08:00:00 16.6 10 Oeste 28 Noroeste 0 -- -- 86
2019-04-25 07:00:00 16.5 5 Oeste 23 Oeste 0 -- -- 87
2019-04-25 06:00:00 16.4 7 Oeste 16 Oeste 0 -- -- 86
2019-04-25 05:00:00 16.4 3 Sudoeste 10 Oeste 0 -- -- 83
2019-04-25 04:00:00 16.4 3 Noroeste 13 Oeste 0 -- -- 81
2019-04-25 03:00:00 16.6 8 Oeste 15 Oeste 0 -- -- 76
2019-04-25 02:00:00 16.7 8 Noroeste 30 Noroeste 0 -- -- 73
2019-04-25 01:00:00 16.6 8 Oeste 25 Noroeste 0 -- -- 71
2019-04-25 00:00:00 14.6 5 Nordeste 12 Noroeste 0 -- -- 83
2019-04-24 23:00:00 15.7 3 Nordeste 5 Este 0 -- -- 85
2019-04-24 22:00:00 15.9 3 Noroeste 9 Nordeste 0 -- -- 81
2019-04-24 21:00:00 16.4 3 Sudeste 8 Sur 0 -- -- 77
2019-04-24 20:00:00 16.9 6 Sudoeste 13 Sudoeste 0 -- -- 76
2019-04-24 19:00:00 17.1 8 Sudoeste 26 Sudoeste 0 -- -- 71
2019-04-24 18:00:00 18.7 14 Oeste 29 Oeste 0 -- -- 62
2019-04-24 17:00:00 19 15 Oeste 36 Oeste 0 -- -- 59
2019-04-24 16:00:00 18.8 17 Oeste 38 Oeste 0 -- -- 65
2019-04-24 15:00:00 17.6 12 Oeste 27 Oeste 0 -- -- 69
2019-04-24 14:00:00 16.6 14 Oeste 24 Sur 0 -- -- 74
2019-04-24 13:00:00 16.1 7 Oeste 21 Oeste 0 -- -- 77
2019-04-24 12:00:00 14.8 10 Oeste 26 Oeste 0 -- -- 85
2019-04-24 11:00:00 15.6 7 Sudoeste 19 Sur 0 -- -- 69
2019-04-24 10:00:00 15.3 4 Sur 8 Sudoeste 0 -- -- 63
2019-04-24 09:00:00 12.1 4 Nordeste 12 Nordeste 0 -- -- 78
2019-04-24 08:00:00 9.6 6 Nordeste 10 Norte 0 -- -- 86
2019-04-24 07:00:00 9.7 5 Nordeste 9 Nordeste 0 -- -- 83
2019-04-24 06:00:00 9.4 8 Nordeste 9 Nordeste 0 -- -- 85
2019-04-24 05:00:00 9.5 5 Norte 9 Norte 0 -- -- 86
2019-04-24 04:00:00 10.4 4 Norte 8 Norte 0 -- -- 81
2019-04-24 03:00:00 10.1 8 Norte 14 Nordeste 0 -- -- 81
2019-04-24 02:00:00 10.2 6 Nordeste 13 Noroeste 0 -- -- 80
2019-04-24 01:00:00 13.1 6 Noroeste 28 Noroeste 0 -- -- 67
2019-04-24 00:00:00 14.4 12 Oeste 35 Oeste 0 -- -- 67
2019-04-23 23:00:00 14.8 16 Oeste 49 Oeste 0 -- -- 71
2019-04-23 22:00:00 15 22 Oeste 47 Oeste 0 -- -- 66
2019-04-23 21:00:00 15.2 17 Oeste 45 Noroeste 0 -- -- 65
2019-04-23 20:00:00 16.3 18 Oeste 39 Oeste 0 -- -- 62
2019-04-23 19:00:00 16.7 23 Oeste 44 Oeste 0 -- -- 66
2019-04-23 18:00:00 16.8 18 Sudoeste 49 Oeste 0 -- -- 68
2019-04-23 17:00:00 16.9 20 Oeste 47 Oeste 0 -- -- 68
2019-04-23 16:00:00 16.8 18 Oeste 44 Sudoeste 0 -- -- 61
2019-04-23 15:00:00 15.1 13 Oeste 25 Noroeste 0 -- -- 74
2019-04-23 14:00:00 15.2 3 Este 19 Oeste 0.8 -- -- 91
2019-04-23 13:00:00 14.9 4 Oeste 35 Sudoeste 1.2 -- -- 90
2019-04-23 12:00:00 15.1 5 Oeste 14 Norte 1.4 -- -- 89
2019-04-23 11:00:00 14.6 8 Noroeste 37 Oeste 2 -- -- 91
2019-04-23 10:00:00 15.8 4 Oeste 12 Oeste 0.6 -- -- 87
2019-04-23 09:00:00 16.2 2 Oeste 14 Oeste 0 -- -- 82
2019-04-23 08:00:00 15.6 0 Calma 19 Oeste 0 -- -- 87
2019-04-23 07:00:00 15.5 8 Oeste 21 Oeste 0 -- -- 81
2019-04-23 06:00:00 13.6 6 Nordeste 15 Noroeste 0 -- -- 87
2019-04-23 05:00:00 15.5 4 Noroeste 22 Oeste 0 -- -- 79
2019-04-23 04:00:00 16.1 10 Oeste 33 Oeste 0 -- -- 77
2019-04-23 03:00:00 16.3 11 Oeste 28 Oeste 0 -- -- 77
2019-04-23 02:00:00 16 7 Noroeste 21 Noroeste 0 -- -- 76
2019-04-23 01:00:00 16 6 Noroeste 29 Oeste 0 -- -- 81
2019-04-23 00:00:00 16.4 12 Noroeste 27 Oeste 0 -- -- 83
2019-04-22 23:00:00 17 10 Oeste 22 Oeste 0 -- -- 79
2019-04-22 22:00:00 18 13 Oeste 29 Oeste 0 -- -- 78
2019-04-22 21:00:00 18.5 12 Oeste 33 Oeste 0 -- -- 74
2019-04-22 20:00:00 19.3 18 Oeste 32 Oeste 0 -- -- 72
2019-04-22 19:00:00 19.3 18 Oeste 36 Oeste 0 -- -- 71
2019-04-22 18:00:00 19.9 17 Oeste 37 Oeste 0 -- -- 64
2019-04-22 17:00:00 19.8 22 Oeste 37 Oeste 0 -- -- 69
2019-04-22 16:00:00 18.7 15 Oeste 36 Oeste 0 -- -- 67
2019-04-22 15:00:00 19.8 12 Oeste 25 Oeste 0 -- -- 54
2019-04-22 14:00:00 18.9 11 Oeste 25 Oeste 0 -- -- 56
2019-04-22 13:00:00 18.3 11 Noroeste 20 Oeste 0 -- -- 60
2019-04-22 12:00:00 17.5 8 Noroeste 23 Noroeste 0 -- -- 61
2019-04-22 11:00:00 16.8 11 Norte 34 Noroeste 0 -- -- 60
2019-04-22 10:00:00 16.3 18 Norte 30 Norte 0 -- -- 64
2019-04-22 09:00:00 13.9 10 Norte 20 Norte 0 -- -- 83
2019-04-22 08:00:00 11.1 4 Este 10 Este 0 -- -- 97
2019-04-22 07:00:00 11.5 4 Oeste 9 Nordeste 0 -- -- 96
2019-04-22 06:00:00 11.8 3 Norte 8 Norte 0 -- -- 96
2019-04-22 05:00:00 12.5 4 Nordeste 11 Nordeste 0 -- -- 97
2019-04-22 04:00:00 12.8 6 Nordeste 9 Nordeste 0 -- -- 98
2019-04-22 03:00:00 12.5 4 Norte 9 Nordeste 0 -- -- 98
2019-04-22 02:00:00 12.5 4 Norte 7 Norte 0 -- -- 97
2019-04-22 01:00:00 13.2 4 Norte 6 Norte 0 -- -- 96
2019-04-22 00:00:00 13.8 2 Nordeste 6 Nordeste 0 -- -- 95
2019-04-21 23:00:00 14.3 4 Norte 5 Nordeste 0 -- -- 94
2019-04-21 22:00:00 15.1 3 Sudeste 6 Sudoeste 0 -- -- 91
2019-04-21 21:00:00 15.5 4 Sudoeste 18 Oeste 0 -- -- 88
2019-04-21 20:00:00 15.8 8 Oeste 19 Oeste 0 -- -- 87
2019-04-21 19:00:00 15.7 6 Oeste 15 Noroeste 0 -- -- 90
2019-04-21 18:00:00 15.7 10 Oeste 23 Oeste 0.8 -- -- 90
2019-04-21 17:00:00 16.3 13 Oeste 24 Oeste 0 -- -- 85
2019-04-21 16:00:00 16.8 11 Oeste 23 Oeste 0 -- -- 79
2019-04-21 15:00:00 16.4 8 Oeste 18 Oeste 0 -- -- 81
2019-04-21 14:00:00 16.2 10 Sudoeste 18 Sudoeste 0 -- -- 83
2019-04-21 13:00:00 15.7 10 Sudoeste 17 Sudoeste 0 -- -- 87
2019-04-21 12:00:00 15.8 8 Oeste 17 Noroeste 0 -- -- 86
2019-04-21 11:00:00 15 0 Calma 5 Nordeste 0 -- -- 93
2019-04-21 10:00:00 14.2 2 Nordeste 6 Este 0 -- -- 97
2019-04-21 09:00:00 13.6 4 Nordeste 8 Nordeste 0.4 -- -- 97
2019-04-21 08:00:00 13.4 4 Nordeste 8 Nordeste 0.8 -- -- 96
2019-04-21 07:00:00 13.5 0 Calma 3 Sudeste 0.2 -- -- 96
2019-04-21 06:00:00 13.7 3 Sudeste 7 Sudeste 0 -- -- 95
2019-04-21 05:00:00 13.6 3 Norte 6 Norte 0 -- -- 95
2019-04-21 04:00:00 14 4 Sudeste 6 Este 0.2 -- -- 94
2019-04-21 03:00:00 14 3 Norte 6 Noroeste 0.2 -- -- 93
2019-04-21 02:00:00 14 4 Norte 6 Nordeste 0 -- -- 93
2019-04-21 01:00:00 14.1 3 Norte 5 Norte 0 -- -- 92
2019-04-21 00:00:00 14.3 3 Nordeste 6 Norte 0 -- -- 91
2019-04-20 23:00:00 14.6 0 Calma 5 Nordeste 0 -- -- 89
2019-04-20 22:00:00 15.1 3 Nordeste 6 Norte 0 -- -- 85
2019-04-20 21:00:00 15.9 0 Calma 5 Sudoeste 0 -- -- 78
2019-04-20 20:00:00 16.1 4 Sudoeste 12 Sudoeste 0 -- -- 77
2019-04-20 19:00:00 17.1 6 Sudoeste 13 Sudoeste 0 -- -- 74
2019-04-20 18:00:00 16.9 5 Sur 14 Sur 0 -- -- 78
2019-04-20 17:00:00 16.5 8 Sur 13 Sur 0 -- -- 78
2019-04-20 16:00:00 17.2 6 Sudoeste 11 Sur 0 -- -- 72
2019-04-20 15:00:00 16.8 5 Sudoeste 18 Sur 0 -- -- 71
2019-04-20 14:00:00 16.6 13 Sudoeste 25 Oeste 0 -- -- 72
2019-04-20 13:00:00 19.8 6 Este 15 Sudeste 0 -- -- 54
2019-04-20 12:00:00 16.9 0 Calma 9 Este 0 -- -- 68
2019-04-20 11:00:00 15.5 3 Nordeste 8 Este 0 -- -- 82
2019-04-20 10:00:00 13.5 2 Nordeste 4 Nordeste 0 -- -- 91
2019-04-20 09:00:00 12.4 0 Calma 6 Norte 0 -- -- 93
2019-04-20 08:00:00 11.7 3 Nordeste 9 Nordeste 0 -- -- 93
2019-04-20 07:00:00 11.3 6 Norte 9 Nordeste 0 -- -- 93
2019-04-20 06:00:00 11.4 6 Norte 9 Norte 0 -- -- 92
2019-04-20 05:00:00 11.6 5 Nordeste 12 Este 0 -- -- 91
2019-04-20 04:00:00 12 7 Nordeste 14 Nordeste 0 -- -- 89
2019-04-20 03:00:00 11.7 6 Nordeste 12 Nordeste 0 -- -- 92
2019-04-20 02:00:00 11.7 7 Nordeste 12 Nordeste 0 -- -- 92
2019-04-20 01:00:00 12.2 6 Nordeste 11 Este 0 -- -- 92
2019-04-20 00:00:00 12 7 Nordeste 11 Nordeste 0 -- -- 92
2019-04-19 23:00:00 12.5 5 Nordeste 10 Norte 0 -- -- 90
2019-04-19 22:00:00 13.4 5 Norte 9 Norte 0 -- -- 88
2019-04-19 21:00:00 16 2 Sudeste 5 Sur 0 -- -- 79
2019-04-19 20:00:00 16.5 4 Sudeste 10 Sur 0 -- -- 70
2019-04-19 19:00:00 16.8 7 Sur 15 Sudoeste 0 -- -- 72
2019-04-19 18:00:00 18.4 9 Sur 19 Sur 0 -- -- 67
2019-04-19 17:00:00 17.7 11 Sudoeste 19 Sur 0 -- -- 69
2019-04-19 16:00:00 18.4 12 Sur 22 Sudoeste 0 -- -- 67
2019-04-19 15:00:00 18 12 Sudoeste 22 Sudoeste 0 -- -- 68
2019-04-19 14:00:00 17.5 10 Sudoeste 23 Sur 0 -- -- 70
2019-04-19 13:00:00 17.8 14 Sur 27 Sudeste 0 -- -- 66
2019-04-19 12:00:00 17.7 18 Sur 32 Sur 0 -- -- 70
2019-04-19 11:00:00 17.7 14 Sur 20 Sur 0 -- -- 69
2019-04-19 10:00:00 17.3 10 Nordeste 26 Nordeste 0 -- -- 60
2019-04-19 09:00:00 14.2 14 Nordeste 28 Nordeste 0 -- -- 69
2019-04-19 08:00:00 12.2 14 Nordeste 24 Nordeste 0 -- -- 75
2019-04-19 07:00:00 11.8 12 Nordeste 19 Nordeste 0 -- -- 78
2019-04-19 06:00:00 11.6 8 Nordeste 17 Nordeste 0 -- -- 79
2019-04-19 05:00:00 10.3 7 Nordeste 12 Norte 0 -- -- 88
2019-04-19 04:00:00 10.5 6 Nordeste 13 Nordeste 0 -- -- 87
2019-04-19 03:00:00 11 8 Nordeste 12 Nordeste 0 -- -- 89
2019-04-19 02:00:00 13.2 4 Noroeste 10 Oeste 0 -- -- 83
2019-04-19 01:00:00 13.4 5 Norte 13 Nordeste 0 -- -- 76
2019-04-19 00:00:00 12.1 2 Este 9 Este 0 -- -- 85
2019-04-18 23:00:00 13.2 8 Norte 19 Norte 0 -- -- 77
2019-04-18 22:00:00 13.8 7 Norte 10 Norte 0 -- -- 90
2019-04-18 21:00:00 15.5 8 Noroeste 20 Oeste 0 -- -- 82
2019-04-18 20:00:00 16.5 8 Sudoeste 21 Sudoeste 0 -- -- 81
2019-04-18 19:00:00 17.3 9 Sudoeste 22 Sur 0 -- -- 77
2019-04-18 18:00:00 17 13 Sudoeste 30 Oeste 0 -- -- 76
2019-04-18 17:00:00 17.2 10 Oeste 30 Sudoeste 0 -- -- 75
2019-04-18 16:00:00 17.1 7 Sudoeste 26 Oeste 0 -- -- 66
2019-04-18 15:00:00 17.4 11 Sudoeste 27 Sudoeste 0 -- -- 80
2019-04-18 14:00:00 17.4 16 Sudoeste 29 Sudoeste 0 -- -- 80
2019-04-18 13:00:00 16.7 13 Sudoeste 28 Oeste 0 -- -- 81
2019-04-18 12:00:00 15.2 10 Oeste 24 Oeste 0 -- -- 89
2019-04-18 11:00:00 13 10 Norte 28 Este 1.6 -- -- 90
2019-04-18 10:00:00 13.3 9 Nordeste 19 Nordeste 4 -- -- 95
2019-04-18 09:00:00 13.9 7 Norte 20 Nordeste 3.6 -- -- 94
2019-04-18 08:00:00 14.9 4 Oeste 25 Oeste 3.8 -- -- 95
2019-04-18 07:00:00 15 15 Oeste 33 Oeste 1.8 -- -- 94
2019-04-18 06:00:00 15.8 10 Oeste 30 Sudoeste 0 -- -- 93
2019-04-18 05:00:00 15.8 9 Oeste 27 Oeste 0.8 -- -- 92
2019-04-18 04:00:00 15.8 15 Oeste 28 Oeste 0.2 -- -- 92
2019-04-18 03:00:00 16 8 Sudoeste 18 Sudoeste 0.2 -- -- 92
2019-04-18 02:00:00 16.5 9 Sur 21 Sudoeste 0 -- -- 87
2019-04-18 01:00:00 17 5 Noroeste 16 Sudoeste 0 -- -- 80
2019-04-18 00:00:00 17.3 8 Oeste 14 Oeste 0 -- -- 78
2019-04-17 23:00:00 17.2 5 Oeste 22 Oeste 0 -- -- 80
2019-04-17 22:00:00 17.2 13 Oeste 30 Sudoeste 0 -- -- 80
2019-04-17 21:00:00 17.2 12 Oeste 30 Oeste 0 -- -- 79
2019-04-17 20:00:00 17.5 15 Oeste 39 Oeste 0 -- -- 78
2019-04-17 19:00:00 17.9 13 Oeste 28 Noroeste 0 -- -- 80
2019-04-17 18:00:00 19.1 10 Oeste 28 Oeste 0 -- -- 74
2019-04-17 17:00:00 19.1 19 Oeste 34 Oeste 0 -- -- 74
2019-04-17 16:00:00 21.1 17 Sur 33 Sur 0 -- -- 65
2019-04-17 15:00:00 21.7 22 Sur 36 Sudeste 0 -- -- 60
2019-04-17 14:00:00 22.4 19 Sur 32 Sur 0 -- -- 59
2019-04-17 13:00:00 20.5 13 Sur 28 Sudoeste 0 -- -- 63
2019-04-17 12:00:00 19.1 11 Oeste 26 Sudoeste 0 -- -- 71
2019-04-17 11:00:00 18.4 12 Sudoeste 19 Sudoeste 0 -- -- 68
2019-04-17 10:00:00 17.2 4 Sudoeste 12 Sudoeste 0 -- -- 70
2019-04-17 09:00:00 13.3 5 Norte 12 Nordeste 0 -- -- 87
2019-04-17 08:00:00 10.8 5 Nordeste 10 Nordeste 0 -- -- 92
2019-04-17 07:00:00 10.9 6 Nordeste 10 Nordeste 0 -- -- 93
2019-04-17 06:00:00 10.7 6 Norte 9 Norte 0 -- -- 94
2019-04-17 05:00:00 10.9 4 Norte 9 Norte 0 -- -- 92
2019-04-17 04:00:00 11.3 5 Norte 7 Nordeste 0 -- -- 91
2019-04-17 03:00:00 12.3 4 Norte 10 Norte 0 -- -- 87
2019-04-17 02:00:00 13.6 6 Nordeste 9 Nordeste 0 -- -- 88
2019-04-17 01:00:00 16 4 Sudoeste 16 Oeste 0 -- -- 82
2019-04-17 00:00:00 14.3 5 Noroeste 10 Noroeste 0 -- -- 88
2019-04-16 23:00:00 14.6 0 Calma 9 Norte 0 -- -- 88
2019-04-16 22:00:00 16.3 3 Nordeste 12 Oeste 0 -- -- 84
2019-04-16 21:00:00 17.6 8 Oeste 18 Oeste 0 -- -- 80
2019-04-16 20:00:00 19 10 Oeste 17 Oeste 0 -- -- 74
2019-04-16 19:00:00 19.8 12 Sudoeste 18 Sudoeste 0 -- -- 71
2019-04-16 18:00:00 21.2 7 Sudoeste 16 Oeste 0 -- -- 65
2019-04-16 17:00:00 20.7 10 Sudoeste 18 Sur 0 -- -- 68
2019-04-16 16:00:00 20.8 9 Sur 22 Sur 0 -- -- 67
2019-04-16 15:00:00 19.3 15 Sudoeste 24 Sudoeste 0 -- -- 75
2019-04-16 14:00:00 20.4 9 Sur 29 Sur 0 -- -- 67
2019-04-16 13:00:00 21 18 Sur 36 Sur 0 -- -- 66
2019-04-16 12:00:00 19.4 9 Sudoeste 17 Sur 0 -- -- 72
2019-04-16 11:00:00 18.5 10 Sudoeste 23 Sur 0 -- -- 73
2019-04-16 10:00:00 18 5 Sudoeste 16 Sudeste 0 -- -- 79
2019-04-16 09:00:00 15.6 4 Sudeste 15 Sudeste 0 -- -- 90
2019-04-16 08:00:00 12.3 4 Noroeste 12 Norte 0 -- -- 94
2019-04-16 07:00:00 12.4 5 Este 11 Este 0 -- -- 92
2019-04-16 06:00:00 13.3 5 Norte 15 Noroeste 0 -- -- 90
2019-04-16 05:00:00 16.3 8 Oeste 35 Oeste 0 -- -- 83
2019-04-16 04:00:00 16.4 10 Oeste 36 Sudoeste 0 -- -- 82
2019-04-16 03:00:00 16.6 12 Oeste 33 Oeste 0 -- -- 84
2019-04-16 02:00:00 16.6 14 Oeste 32 Oeste 0 -- -- 85
2019-04-16 01:00:00 12.8 5 Noroeste 8 Norte 0 -- -- 87
2019-04-16 00:00:00 14.7 0 Calma 9 Nordeste 0 -- -- 81
2019-04-15 23:00:00 16.1 4 Sudoeste 19 Oeste 0 -- -- 79
2019-04-15 22:00:00 18.3 10 Oeste 35 Oeste 0 -- -- 67
2019-04-15 21:00:00 20.1 17 Oeste 33 Noroeste 0 -- -- 49
2019-04-15 20:00:00 20.9 13 Oeste 27 Oeste 0 -- -- 44
2019-04-15 19:00:00 22.4 18 Sudoeste 31 Sudoeste 0 -- -- 32
2019-04-15 18:00:00 22.8 12 Oeste 26 Sudoeste 0 -- -- 35
2019-04-15 17:00:00 23.4 14 Oeste 25 Oeste 0 -- -- 37
2019-04-15 16:00:00 23.7 12 Sudoeste 22 Sudoeste 0 -- -- 45
2019-04-15 15:00:00 23.6 11 Sudoeste 18 Sudoeste 0 -- -- 44
2019-04-15 14:00:00 23.4 8 Sudoeste 20 Sudoeste 0 -- -- 40
2019-04-15 13:00:00 23.4 5 Oeste 9 Sudoeste 0 -- -- 48
2019-04-15 12:00:00 21.5 2 Norte 10 Oeste 0 -- -- 60
2019-04-15 11:00:00 20.3 5 Noroeste 10 Sudoeste 0 -- -- 68
2019-04-15 10:00:00 18.5 4 Oeste 9 Oeste 0 -- -- 76
2019-04-15 09:00:00 15.9 5 Oeste 10 Oeste 0 -- -- 86
2019-04-15 08:00:00 14.3 5 Este 13 Este 0 -- -- 79
2019-04-15 07:00:00 12 7 Nordeste 10 Nordeste 0 -- -- 91
2019-04-15 06:00:00 12 5 Nordeste 8 Norte 0 -- -- 90
2019-04-15 05:00:00 13.1 0 Calma 8 Norte 0 -- -- 89
2019-04-15 04:00:00 13.5 5 Nordeste 9 Nordeste 0 -- -- 88
2019-04-15 03:00:00 13.3 0 Calma 6 Norte 0 -- -- 88
2019-04-15 02:00:00 14.1 6 Norte 8 Norte 0 -- -- 87
2019-04-15 01:00:00 14.5 5 Este 8 Este 0 -- -- 87
2019-04-15 00:00:00 14.9 0 Calma 8 Nordeste 0 -- -- 85
2019-04-14 23:00:00 15.2 4 Nordeste 10 Noroeste 0 -- -- 83
2019-04-14 22:00:00 15.6 5 Norte 6 Norte 0 -- -- 80
2019-04-14 21:00:00 17.4 0 Calma 6 Sudeste 0 -- -- 74
2019-04-14 20:00:00 19.8 2 Sur 17 Sudoeste 0 -- -- 54
2019-04-14 19:00:00 20.3 11 Sudoeste 16 Sudoeste 0 -- -- 41
2019-04-14 18:00:00 20.8 10 Sudoeste 17 Oeste 0 -- -- 45
2019-04-14 17:00:00 20.9 10 Sudoeste 17 Sudoeste 0 -- -- 50
2019-04-14 16:00:00 21.5 9 Sudoeste 15 Sur 0 -- -- 53
2019-04-14 15:00:00 21.2 7 Sudoeste 15 Sudoeste 0 -- -- 54
2019-04-14 14:00:00 21.1 9 Sudoeste 15 Sudoeste 0 -- -- 47
2019-04-14 13:00:00 21.8 8 Sudoeste 15 Sudoeste 0 -- -- 43
2019-04-14 12:00:00 19.8 6 Sudoeste 15 Sudoeste 0 -- -- 63
2019-04-14 11:00:00 18.7 7 Sudoeste 13 Sudoeste 0 -- -- 60
2019-04-14 10:00:00 18.2 8 Sur 19 Este 0 -- -- 68
2019-04-14 09:00:00 15.7 2 Noroeste 9 Oeste 0 -- -- 83
2019-04-14 08:00:00 13.5 4 Noroeste 7 Oeste 0 -- -- 83
2019-04-14 07:00:00 16.4 6 Nordeste 24 Nordeste 0 -- -- 45
2019-04-14 06:00:00 16.9 15 Nordeste 26 Nordeste 0 -- -- 42
2019-04-14 05:00:00 16.3 17 Nordeste 29 Nordeste 0 -- -- 44
2019-04-14 04:00:00 11.1 6 Nordeste 13 Nordeste 0 -- -- 79
2019-04-14 03:00:00 15 4 Sudoeste 21 Nordeste 0 -- -- 52
2019-04-14 02:00:00 15.3 10 Este 17 Este 0 -- -- 51
2019-04-14 01:00:00 10.9 6 Nordeste 15 Este 0 -- -- 83
2019-04-14 00:00:00 11.9 5 Este 10 Norte 0 -- -- 78
2019-04-13 23:00:00 13.2 5 Nordeste 14 Norte 0 -- -- 70
2019-04-13 22:00:00 14.3 5 Norte 10 Nordeste 0 -- -- 72
2019-04-13 21:00:00 17.1 5 Noroeste 23 Oeste 0 -- -- 60
2019-04-13 20:00:00 19.1 12 Sudoeste 25 Sudoeste 0 -- -- 51
2019-04-13 19:00:00 19.8 13 Sudoeste 23 Sudoeste 0 -- -- 45
2019-04-13 18:00:00 19.8 14 Sudoeste 24 Sudoeste 0 -- -- 53
2019-04-13 17:00:00 20 12 Sudoeste 29 Sudoeste 0 -- -- 49
2019-04-13 16:00:00 20.5 14 Sudoeste 24 Sudoeste 0 -- -- 43
2019-04-13 15:00:00 21.1 14 Sudoeste 22 Sudoeste 0 -- -- 30
2019-04-13 14:00:00 20.7 10 Oeste 28 Oeste 0 -- -- 35
2019-04-13 13:00:00 21 15 Oeste 27 Oeste 0 -- -- 30
2019-04-13 12:00:00 21 12 Oeste 20 Oeste 0 -- -- 34
2019-04-13 11:00:00 21.4 5 Oeste 24 Nordeste 0 -- -- 30
2019-04-13 10:00:00 18.9 17 Nordeste 34 Nordeste 0 -- -- 31
2019-04-13 09:00:00 16 16 Nordeste 32 Nordeste 0 -- -- 37
2019-04-13 08:00:00 14.2 20 Nordeste 34 Nordeste 0 -- -- 40
2019-04-13 07:00:00 13.6 13 Nordeste 26 Nordeste 0 -- -- 43
2019-04-13 06:00:00 14.2 13 Nordeste 28 Nordeste 0 -- -- 41
2019-04-13 05:00:00 14.3 12 Nordeste 27 Nordeste 0 -- -- 42
2019-04-13 04:00:00 13.5 7 Nordeste 17 Este 0 -- -- 49
2019-04-13 03:00:00 12.3 9 Nordeste 19 Nordeste 0 -- -- 59
2019-04-13 02:00:00 9.4 6 Norte 9 Nordeste 0 -- -- 84
2019-04-13 01:00:00 10.7 7 Norte 9 Nordeste 0 -- -- 78
2019-04-13 00:00:00 11.3 5 Norte 12 Nordeste 0 -- -- 79
2019-04-12 23:00:00 12.6 8 Nordeste 12 Norte 0 -- -- 79
2019-04-12 22:00:00 13.4 6 Norte 9 Norte 0 -- -- 82
2019-04-12 21:00:00 16.4 5 Sudeste 22 Sudoeste 0 -- -- 70
2019-04-12 20:00:00 18.5 12 Sudoeste 27 Sudoeste 0 -- -- 44
2019-04-12 19:00:00 19.1 13 Sudoeste 26 Sudoeste 0 -- -- 44
2019-04-12 18:00:00 20.7 12 Oeste 28 Oeste 0 -- -- 35
2019-04-12 17:00:00 21.3 9 Oeste 18 Oeste 0 -- -- 27
2019-04-12 16:00:00 21.2 8 Sudoeste 18 Sudoeste 0 -- -- 30
2019-04-12 15:00:00 21.1 10 Sudoeste 17 Sur 0 -- -- 27
2019-04-12 14:00:00 21 10 Oeste 21 Oeste 0 -- -- 29
2019-04-12 13:00:00 20.3 12 Oeste 20 Oeste 0 -- -- 34
2019-04-12 12:00:00 20 13 Oeste 21 Oeste 0 -- -- 32
2019-04-12 11:00:00 21.7 10 Nordeste 24 Nordeste 0 -- -- 26
2019-04-12 10:00:00 18.6 15 Nordeste 25 Este 0 -- -- 32
2019-04-12 09:00:00 15.6 12 Nordeste 26 Este 0 -- -- 39
2019-04-12 08:00:00 13.4 18 Nordeste 36 Este 0 -- -- 43
2019-04-12 07:00:00 13.7 13 Nordeste 24 Nordeste 0 -- -- 42
2019-04-12 06:00:00 14.4 15 Este 29 Este 0 -- -- 40
2019-04-12 05:00:00 14.8 15 Este 26 Nordeste 0 -- -- 40
2019-04-12 04:00:00 15 15 Este 22 Nordeste 0 -- -- 40
2019-04-12 03:00:00 14.5 9 Nordeste 28 Nordeste 0 -- -- 44
2019-04-12 02:00:00 13.4 8 Nordeste 16 Sudeste 0 -- -- 51
2019-04-12 01:00:00 13.4 4 Sudoeste 14 Sudeste 0 -- -- 51
2019-04-12 00:00:00 12.3 3 Norte 9 Nordeste 0 -- -- 60
2019-04-11 23:00:00 15.3 2 Norte 16 Sudeste 0 -- -- 55
2019-04-11 22:00:00 18.1 9 Norte 22 Norte 0 -- -- 30
2019-04-11 21:00:00 17.7 8 Sur 14 Sur 0 -- -- 61
2019-04-11 20:00:00 18.9 6 Oeste 32 Oeste 0 -- -- 53
2019-04-11 19:00:00 18.9 16 Oeste 42 Oeste 0 -- -- 54
2019-04-11 18:00:00 19.4 24 Oeste 45 Oeste 0 -- -- 51
2019-04-11 17:00:00 19.8 22 Oeste 41 Oeste 0 -- -- 50
2019-04-11 16:00:00 19.1 21 Sudoeste 50 Oeste 0 -- -- 48
2019-04-11 15:00:00 18.4 22 Sudoeste 37 Sudoeste 0 -- -- 53
2019-04-11 14:00:00 19.2 18 Oeste 36 Noroeste 0 -- -- 48
2019-04-11 13:00:00 18.9 15 Oeste 30 Oeste 0 -- -- 51
2019-04-11 12:00:00 20.1 12 Oeste 21 Sudoeste 0 -- -- 36
2019-04-11 11:00:00 19.7 10 Este 24 Este 0 -- -- 38
2019-04-11 10:00:00 18.1 11 Este 19 Nordeste 0 -- -- 43
2019-04-11 09:00:00 14.4 9 Norte 17 Norte 0 -- -- 58
2019-04-11 08:00:00 10.3 8 Norte 15 Nordeste 0 -- -- 76
2019-04-11 07:00:00 10.6 6 Nordeste 12 Sudeste 0 -- -- 74
2019-04-11 06:00:00 13.2 3 Nordeste 19 Norte 0 -- -- 57
2019-04-11 05:00:00 14.7 9 Nordeste 25 Noroeste 0 -- -- 50
2019-04-11 04:00:00 13.4 9 Noroeste 20 Oeste 0 -- -- 57
2019-04-11 03:00:00 10.9 7 Noroeste 15 Noroeste 0 -- -- 75
2019-04-11 02:00:00 10.5 6 Norte 12 Norte 0 -- -- 80
2019-04-11 01:00:00 11.1 4 Norte 8 Nordeste 0 -- -- 82
2019-04-11 00:00:00 12.1 4 Norte 10 Noroeste 0 -- -- 76
2019-04-10 23:00:00 13.3 5 Norte 14 Noroeste 0 -- -- 66
2019-04-10 22:00:00 13.8 6 Noroeste 14 Norte 0 -- -- 66
2019-04-10 21:00:00 16 6 Norte 31 Norte 0 -- -- 49
2019-04-10 20:00:00 18.4 19 Norte 39 Norte 0 -- -- 36
2019-04-10 19:00:00 19.9 17 Norte 44 Norte 0 -- -- 32
2019-04-10 18:00:00 20.4 26 Norte 46 Norte 0 -- -- 29
2019-04-10 17:00:00 20.9 23 Norte 49 Norte 0 -- -- 27
2019-04-10 16:00:00 21.6 22 Norte 43 Norte 0 -- -- 28
2019-04-10 15:00:00 21.1 12 Noroeste 38 Norte 0 -- -- 35
2019-04-10 14:00:00 20.4 16 Noroeste 37 Norte 0 -- -- 40
2019-04-10 13:00:00 20 21 Noroeste 44 Noroeste 0 -- -- 35
2019-04-10 12:00:00 18.7 26 Noroeste 52 Noroeste 0 -- -- 37
2019-04-10 11:00:00 17.2 31 Norte 56 Norte 0 -- -- 44
2019-04-10 10:00:00 16.6 19 Norte 34 Norte 0 -- -- 46
2019-04-10 09:00:00 14.9 10 Norte 27 Norte 0 -- -- 52
2019-04-10 08:00:00 13 13 Norte 34 Norte 0 -- -- 57
2019-04-10 07:00:00 14.4 14 Norte 35 Noroeste 0 -- -- 54
2019-04-10 06:00:00 15.4 24 Noroeste 43 Noroeste 0 -- -- 48
2019-04-10 05:00:00 13.1 9 Norte 23 Noroeste 0 -- -- 64
2019-04-10 04:00:00 15.4 14 Noroeste 30 Noroeste 0 -- -- 55
2019-04-10 03:00:00 14.6 8 Norte 23 Noroeste 0 -- -- 59
2019-04-10 02:00:00 13.7 7 Norte 25 Noroeste 0 -- -- 66
2019-04-10 01:00:00 15.7 13 Noroeste 32 Norte 0 -- -- 54
2019-04-10 00:00:00 16.5 18 Norte 31 Norte 0 -- -- 54
2019-04-09 23:00:00 15.5 11 Norte 22 Norte 0 -- -- 57
2019-04-09 22:00:00 14.3 5 Norte 12 Norte 0 -- -- 67
2019-04-09 21:00:00 16.5 4 Noroeste 23 Noroeste 0 -- -- 66
2019-04-09 20:00:00 17.6 13 Oeste 39 Oeste 0 -- -- 65
2019-04-09 19:00:00 18.2 23 Oeste 49 Oeste 0 -- -- 65
2019-04-09 18:00:00 18.3 26 Oeste 49 Oeste 0 -- -- 65
2019-04-09 17:00:00 18.5 22 Oeste 45 Oeste 0 -- -- 59
2019-04-09 16:00:00 18.4 22 Oeste 48 Oeste 0 -- -- 67
2019-04-09 15:00:00 18.5 23 Oeste 51 Oeste 0 -- -- 60
2019-04-09 14:00:00 18.4 19 Oeste 42 Oeste 0 -- -- 55
2019-04-09 13:00:00 20.3 17 Noroeste 42 Noroeste 0 -- -- 39
2019-04-09 12:00:00 18.3 18 Norte 41 Norte 0 -- -- 53
2019-04-09 11:00:00 18.2 14 Noroeste 38 Noroeste 0 -- -- 49
2019-04-09 10:00:00 16.6 20 Noroeste 40 Noroeste 0 -- -- 49
2019-04-09 09:00:00 15.3 20 Noroeste 40 Norte 0 -- -- 51
2019-04-09 08:00:00 13.4 9 Norte 25 Noroeste 0 -- -- 57
2019-04-09 07:00:00 14 14 Norte 33 Norte 0 -- -- 55
2019-04-09 06:00:00 14.6 17 Norte 31 Norte 0 -- -- 55
2019-04-09 05:00:00 14.6 12 Norte 32 Noroeste 0 -- -- 59
2019-04-09 04:00:00 14.6 15 Norte 27 Noroeste 0 -- -- 61
2019-04-09 03:00:00 11.9 3 Noroeste 12 Noroeste 0 -- -- 85
2019-04-09 02:00:00 14.6 9 Oeste 18 Oeste 0 -- -- 85
2019-04-09 01:00:00 15.2 6 Norte 30 Oeste 0 -- -- 85
2019-04-09 00:00:00 15.8 8 Oeste 29 Oeste 0 -- -- 85
2019-04-08 23:00:00 16.3 9 Oeste 19 Oeste 0 -- -- 79
2019-04-08 22:00:00 16.6 7 Noroeste 39 Oeste 0 -- -- 76
2019-04-08 21:00:00 17.2 16 Oeste 43 Oeste 0 -- -- 73
2019-04-08 20:00:00 17.8 19 Oeste 49 Oeste 0 -- -- 69
2019-04-08 19:00:00 18.4 22 Oeste 39 Oeste 0 -- -- 71
2019-04-08 18:00:00 19 16 Oeste 37 Oeste 0 -- -- 70
2019-04-08 17:00:00 19.4 19 Oeste 40 Oeste 0 -- -- 69
2019-04-08 16:00:00 18.3 22 Oeste 45 Oeste 0 -- -- 78
2019-04-08 15:00:00 17.5 20 Oeste 46 Oeste 0 -- -- 78
2019-04-08 14:00:00 17.7 20 Oeste 48 Noroeste 0 -- -- 73
2019-04-08 13:00:00 17.4 24 Oeste 45 Oeste 0 -- -- 79
2019-04-08 12:00:00 17.5 18 Oeste 36 Oeste 0 -- -- 79
2019-04-08 11:00:00 16.9 19 Oeste 33 Oeste 0 -- -- 79
2019-04-08 10:00:00 16.3 9 Oeste 28 Oeste 0 -- -- 76
2019-04-08 09:00:00 15.2 14 Oeste 27 Oeste 0 -- -- 83
2019-04-08 08:00:00 11.2 5 Norte 13 Nordeste 0 -- -- 95
2019-04-08 07:00:00 11.5 7 Norte 14 Norte 0 -- -- 95
2019-04-08 06:00:00 11.7 3 Nordeste 10 Norte 0 -- -- 95
2019-04-08 05:00:00 11.2 5 Norte 12 Noroeste 0 -- -- 95
2019-04-08 04:00:00 10.7 3 Norte 10 Norte 0 -- -- 95
2019-04-08 03:00:00 10.9 4 Norte 10 Noroeste 0 -- -- 95
2019-04-08 02:00:00 11.3 5 Norte 9 Norte 0 -- -- 94
2019-04-08 01:00:00 12.2 5 Norte 8 Nordeste 0 -- -- 92
2019-04-08 00:00:00 13.2 3 Norte 6 Noroeste 0 -- -- 89
2019-04-07 23:00:00 14.4 0 Calma 13 Oeste 0 -- -- 84
2019-04-07 22:00:00 15 0 Calma 18 Noroeste 0 -- -- 81
2019-04-07 21:00:00 15.5 4 Oeste 20 Oeste 0 -- -- 76
2019-04-07 20:00:00 15.8 10 Oeste 27 Oeste 0 -- -- 74
2019-04-07 19:00:00 16.5 13 Oeste 36 Oeste 0 -- -- 72
2019-04-07 18:00:00 17.3 16 Oeste 36 Oeste 0 -- -- 65
2019-04-07 17:00:00 17.1 22 Oeste 40 Oeste 0 -- -- 71
2019-04-07 16:00:00 18.3 13 Noroeste 30 Noroeste 0 -- -- 49
2019-04-07 15:00:00 18.4 18 Norte 44 Norte 0 -- -- 48
2019-04-07 14:00:00 17.8 23 Norte 45 Norte 0 -- -- 50
2019-04-07 13:00:00 17.9 21 Norte 42 Norte 0 -- -- 50
2019-04-07 12:00:00 17.5 23 Norte 45 Norte 0 -- -- 53
2019-04-07 11:00:00 16.3 26 Norte 49 Noroeste 0 -- -- 55
2019-04-07 10:00:00 16.1 15 Norte 40 Nordeste 0 -- -- 56
2019-04-07 09:00:00 13.9 2 Sur 17 Noroeste 0 -- -- 63
2019-04-07 08:00:00 12.1 10 Norte 18 Norte 0 -- -- 63
2019-04-07 07:00:00 12.3 8 Noroeste 27 Noroeste 0 -- -- 67
2019-04-07 06:00:00 10.9 13 Norte 20 Norte 0 -- -- 73
2019-04-07 05:00:00 10.8 13 Noroeste 22 Norte 0 -- -- 75
2019-04-07 04:00:00 10.5 10 Noroeste 21 Noroeste 0 -- -- 83
2019-04-07 03:00:00 9.9 4 Nordeste 12 Norte 0.4 -- -- 91
2019-04-07 02:00:00 10.1 10 Nordeste 15 Nordeste 0 -- -- 86
2019-04-07 01:00:00 9.9 9 Nordeste 28 Norte 0.4 -- -- 85
2019-04-07 00:00:00 11.2 18 Norte 33 Norte 0 -- -- 78
2019-04-06 23:00:00 10.9 8 Norte 25 Noroeste 0.2 -- -- 84
2019-04-06 22:00:00 11.2 9 Norte 31 Norte 0.8 -- -- 87
2019-04-06 21:00:00 12.4 5 Nordeste 15 Sudoeste 0 -- -- 85
2019-04-06 20:00:00 13.5 6 Nordeste 29 Noroeste 0.2 -- -- 80
2019-04-06 19:00:00 14.4 12 Oeste 39 Oeste 0 -- -- 80
2019-04-06 18:00:00 14.1 17 Oeste 33 Oeste 0 -- -- 72
2019-04-06 17:00:00 14.1 15 Oeste 38 Oeste 1.4 -- -- 82
2019-04-06 16:00:00 13.7 16 Oeste 39 Oeste 0.6 -- -- 77
2019-04-06 15:00:00 13.6 15 Oeste 50 Oeste 0 -- -- 79
2019-04-06 14:00:00 15.5 24 Sudoeste 46 Sudoeste 0 -- -- 66
2019-04-06 13:00:00 15.8 21 Oeste 44 Noroeste 0 -- -- 61
2019-04-06 12:00:00 15.8 21 Oeste 42 Oeste 0 -- -- 59
2019-04-06 11:00:00 15.2 11 Oeste 20 Oeste 0 -- -- 56
2019-04-06 10:00:00 14.4 4 Noroeste 10 Oeste 0 -- -- 59
2019-04-06 09:00:00 10.7 3 Oeste 13 Nordeste 0 -- -- 78
2019-04-06 08:00:00 8 5 Norte 11 Nordeste 0 -- -- 89
2019-04-06 07:00:00 7 6 Norte 11 Norte 0 -- -- 89
2019-04-06 06:00:00 7.6 2 Nordeste 14 Noroeste 0 -- -- 84
2019-04-06 05:00:00 10.4 10 Noroeste 23 Oeste 0 -- -- 70
2019-04-06 04:00:00 8.8 9 Noroeste 15 Oeste 0 -- -- 79
2019-04-06 03:00:00 7.2 5 Noroeste 12 Norte 0 -- -- 88
2019-04-06 02:00:00 7.7 2 Noroeste 9 Norte 0 -- -- 88
2019-04-06 01:00:00 7.9 6 Norte 11 Norte 0 -- -- 88
2019-04-06 00:00:00 7.3 4 Norte 7 Norte 0 -- -- 89
2019-04-05 23:00:00 7.9 4 Norte 9 Norte 0 -- -- 85
2019-04-05 22:00:00 9.9 7 Norte 22 Norte 0 -- -- 70
2019-04-05 21:00:00 13.6 16 Norte 36 Norte 0 -- -- 43
2019-04-05 20:00:00 14.5 17 Noroeste 39 Oeste 0 -- -- 47
2019-04-05 19:00:00 15.3 18 Oeste 41 Oeste 0 -- -- 66
2019-04-05 18:00:00 15.6 15 Sudoeste 39 Oeste 0 -- -- 72
2019-04-05 17:00:00 14.4 15 Oeste 33 Sudoeste 0 -- -- 75
2019-04-05 16:00:00 13.6 12 Oeste 31 Sudoeste 0.4 -- -- 86
2019-04-05 15:00:00 12.3 14 Noroeste 46 Oeste 5 -- -- 91
2019-04-05 14:00:00 12.8 22 Oeste 43 Sudoeste 3 -- -- 89
2019-04-05 13:00:00 13.4 17 Oeste 44 Sudoeste 0.2 -- -- 84
2019-04-05 12:00:00 13.2 18 Oeste 53 Sudoeste 0.8 -- -- 90
2019-04-05 11:00:00 11.8 5 Noroeste 14 Norte 2.6 -- -- 94
2019-04-05 10:00:00 11.5 6 Nordeste 10 Nordeste 5.2 -- -- 90
2019-04-05 09:00:00 12.3 3 Norte 15 Oeste 0 -- -- 81
2019-04-05 08:00:00 10.6 4 Norte 13 Nordeste 0 -- -- 77
2019-04-05 07:00:00 9.9 5 Nordeste 13 Norte 0 -- -- 76
2019-04-05 06:00:00 10.8 2 Nordeste 13 Nordeste 0 -- -- 80
2019-04-05 05:00:00 11.1 2 Norte 12 Nordeste 0 -- -- 85
2019-04-05 04:00:00 10.2 7 Nordeste 12 Nordeste 0 -- -- 87
2019-04-05 03:00:00 11 6 Norte 16 Noroeste 0 -- -- 82
2019-04-05 02:00:00 13.6 11 Oeste 29 Noroeste 0 -- -- 70
2019-04-05 01:00:00 14.5 15 Oeste 37 Oeste 0 -- -- 70
2019-04-05 00:00:00 14.6 17 Oeste 40 Oeste 0 -- -- 65
2019-04-04 23:00:00 14.8 13 Oeste 30 Noroeste 0 -- -- 68
2019-04-04 22:00:00 14.2 6 Noroeste 19 Oeste 0 -- -- 71
2019-04-04 21:00:00 15.8 15 Oeste 37 Oeste 0 -- -- 63
2019-04-04 20:00:00 16.9 19 Oeste 39 Oeste 0 -- -- 63
2019-04-04 19:00:00 18 14 Oeste 24 Oeste 0 -- -- 59
2019-04-04 18:00:00 18.9 9 Sudoeste 20 Sur 0 -- -- 58
2019-04-04 17:00:00 18.6 3 Sudoeste 20 Sudoeste 0 -- -- 44
2019-04-04 16:00:00 18.8 10 Sudoeste 33 Sudeste 0 -- -- 47
2019-04-04 15:00:00 19.2 18 Sur 32 Sur 0 -- -- 63
2019-04-04 14:00:00 19.3 18 Sur 34 Sudeste 0 -- -- 61
2019-04-04 13:00:00 18.9 22 Sur 35 Sudeste 0 -- -- 64
2019-04-04 12:00:00 18.4 22 Sur 31 Sur 0 -- -- 68
2019-04-04 11:00:00 17.7 18 Sur 30 Sur 0 -- -- 67
2019-04-04 10:00:00 17.7 12 Sur 26 Nordeste 0 -- -- 64
2019-04-04 09:00:00 14.8 14 Nordeste 28 Nordeste 0 -- -- 48
2019-04-04 08:00:00 13.6 12 Norte 25 Nordeste 0 -- -- 51
2019-04-04 07:00:00 14.2 12 Norte 27 Nordeste 0 -- -- 51
2019-04-04 06:00:00 14 10 Nordeste 21 Nordeste 0 -- -- 55
2019-04-04 05:00:00 15.2 7 Nordeste 20 Nordeste 0 -- -- 52
2019-04-04 04:00:00 16.6 9 Norte 27 Norte 0 -- -- 45
2019-04-04 03:00:00 17.5 15 Norte 28 Noroeste 0 -- -- 39
2019-04-04 02:00:00 18 16 Norte 35 Noroeste 0 -- -- 39
2019-04-04 01:00:00 18.5 14 Norte 33 Noroeste 0 -- -- 39
2019-04-04 00:00:00 19 18 Norte 33 Norte 0 -- -- 40
2019-04-03 23:00:00 19 15 Norte 31 Noroeste 0 -- -- 45
2019-04-03 22:00:00 13.9 6 Norte 19 Norte 0 -- -- 80
2019-04-03 21:00:00 17.8 4 Sudeste 12 Este 0 -- -- 67
2019-04-03 20:00:00 19.8 7 Noroeste 40 Noroeste 0 -- -- 51
2019-04-03 19:00:00 18.8 18 Oeste 36 Oeste 0 -- -- 64
2019-04-03 18:00:00 19.2 19 Sudoeste 30 Sudoeste 0 -- -- 67
2019-04-03 17:00:00 19.7 17 Sudoeste 30 Sudoeste 0 -- -- 63
2019-04-03 16:00:00 19.2 17 Sudoeste 32 Sudoeste 0 -- -- 70
2019-04-03 15:00:00 19.5 11 Sudoeste 22 Sudoeste 0 -- -- 69
2019-04-03 14:00:00 19.7 9 Sudoeste 20 Sudoeste 0 -- -- 61
2019-04-03 13:00:00 18.5 11 Sudoeste 18 Sur 0 -- -- 73
2019-04-03 12:00:00 18.4 12 Sudoeste 18 Sur 0 -- -- 78
2019-04-03 11:00:00 18.8 10 Sudoeste 19 Nordeste 0 -- -- 75
2019-04-03 10:00:00 18.1 12 Nordeste 22 Nordeste 0 -- -- 60
2019-04-03 09:00:00 13.7 14 Nordeste 22 Este 0 -- -- 76
2019-04-03 08:00:00 9.4 8 Norte 12 Nordeste 0 -- -- 94
2019-04-03 07:00:00 9.5 8 Norte 12 Norte 0 -- -- 96
2019-04-03 06:00:00 9.7 4 Norte 9 Norte 0 -- -- 95
2019-04-03 05:00:00 10 4 Nordeste 9 Nordeste 0 -- -- 94
2019-04-03 04:00:00 10.7 6 Norte 13 Norte 0 -- -- 92
2019-04-03 03:00:00 11.1 5 Norte 8 Norte 0 -- -- 94
2019-04-03 02:00:00 12 2 Norte 8 Nordeste 0 -- -- 93
2019-04-03 01:00:00 12.5 0 Calma 8 Nordeste 0 -- -- 91
2019-04-03 00:00:00 13 5 Norte 9 Norte 0 -- -- 91
2019-04-02 23:00:00 13.3 6 Nordeste 9 Nordeste 0 -- -- 90
2019-04-02 22:00:00 14.5 0 Calma 6 Nordeste 0 -- -- 86
2019-04-02 21:00:00 16.6 3 Sudeste 23 Oeste 0 -- -- 78
2019-04-02 20:00:00 17.3 13 Oeste 35 Oeste 0 -- -- 73
2019-04-02 19:00:00 18.6 14 Oeste 32 Sudoeste 0 -- -- 59
2019-04-02 18:00:00 18.6 14 Sudoeste 28 Oeste 0 -- -- 65
2019-04-02 17:00:00 18.7 13 Sudoeste 24 Sudoeste 0 -- -- 71
2019-04-02 16:00:00 19.3 11 Sudoeste 25 Sudoeste 0 -- -- 70
2019-04-02 15:00:00 19.1 12 Sudoeste 21 Oeste 0 -- -- 67
2019-04-02 14:00:00 18.9 9 Sudoeste 23 Sudoeste 0 -- -- 72
2019-04-02 13:00:00 18.5 9 Sudoeste 15 Oeste 0 -- -- 69
2019-04-02 12:00:00 18.3 9 Sudoeste 15 Sudoeste 0 -- -- 67
2019-04-02 11:00:00 19.3 4 Sudeste 16 Nordeste 0 -- -- 54
2019-04-02 10:00:00 16.3 11 Nordeste 22 Este 0 -- -- 66
2019-04-02 09:00:00 12.1 6 Nordeste 13 Nordeste 0 -- -- 85
2019-04-02 08:00:00 11 9 Nordeste 19 Nordeste 0 -- -- 85
2019-04-02 07:00:00 10.8 10 Nordeste 20 Nordeste 0 -- -- 90
2019-04-02 06:00:00 9.7 6 Nordeste 12 Nordeste 0 -- -- 93
2019-04-02 05:00:00 10.1 6 Nordeste 9 Nordeste 0 -- -- 93
2019-04-02 04:00:00 11 9 Nordeste 14 Nordeste 0 -- -- 93
2019-04-02 03:00:00 11 7 Norte 12 Nordeste 0 -- -- 92
2019-04-02 02:00:00 10.8 7 Norte 9 Nordeste 0 -- -- 94
2019-04-02 01:00:00 11.3 5 Norte 12 Norte 0 -- -- 94
2019-04-02 00:00:00 11.9 4 Norte 9 Nordeste 0 -- -- 91
2019-04-01 23:00:00 12.6 6 Norte 9 Norte 0 -- -- 90
2019-04-01 22:00:00 14.5 4 Norte 13 Oeste 0 -- -- 83
2019-04-01 21:00:00 16.6 6 Sudoeste 24 Oeste 0 -- -- 75
2019-04-01 20:00:00 17.2 15 Oeste 32 Oeste 0 -- -- 74
2019-04-01 19:00:00 19.1 11 Sudoeste 28 Oeste 0 -- -- 64
2019-04-01 18:00:00 18.6 16 Oeste 40 Sudoeste 0 -- -- 67
2019-04-01 17:00:00 18.6 16 Sudoeste 35 Sudoeste 0 -- -- 73
2019-04-01 16:00:00 18.5 18 Sudoeste 35 Sudoeste 0 -- -- 74
2019-04-01 15:00:00 18.5 15 Sudoeste 30 Sudoeste 0 -- -- 75
2019-04-01 14:00:00 18 15 Sudoeste 28 Sudoeste 0 -- -- 74
2019-04-01 13:00:00 17 12 Sudoeste 22 Sudoeste 0 -- -- 84
2019-04-01 12:00:00 17.4 12 Sudoeste 20 Oeste 0 -- -- 82
2019-04-01 11:00:00 17.2 9 Sudoeste 14 Oeste 0 -- -- 81
2019-04-01 10:00:00 15.9 6 Nordeste 13 Nordeste 0 -- -- 85
2019-04-01 09:00:00 12.5 6 Nordeste 9 Norte 0 -- -- 98
2019-04-01 08:00:00 11 6 Norte 10 Este 0 -- -- 96
2019-04-01 07:00:00 11.9 5 Norte 12 Nordeste 0 -- -- 95
2019-04-01 06:00:00 14 5 Nordeste 9 Norte 0 -- -- 95
2019-04-01 05:00:00 14.5 5 Norte 13 Oeste 0 -- -- 94
2019-04-01 04:00:00 15.2 6 Oeste 15 Oeste 0 -- -- 92
2019-04-01 03:00:00 15.2 6 Oeste 16 Oeste 0 -- -- 93
2019-04-01 02:00:00 15.3 5 Oeste 15 Oeste 0 -- -- 92
2019-04-01 01:00:00 15.2 8 Oeste 17 Oeste 0 -- -- 92
2019-04-01 00:00:00 15.3 7 Oeste 14 Oeste 0 -- -- 91
2019-03-31 23:00:00 15.2 8 Oeste 19 Oeste 0 -- -- 90
2019-03-31 22:00:00 15.1 10 Oeste 30 Oeste 0 -- -- 90
2019-03-31 21:00:00 15.1 10 Oeste 31 Sudoeste 0 -- -- 89
2019-03-31 20:00:00 15.1 13 Oeste 29 Sur 0 -- -- 90
2019-03-31 19:00:00 15.5 8 Oeste 24 Sudoeste 0 -- -- 89
2019-03-31 18:00:00 15.6 9 Sudoeste 19 Sudoeste 0 -- -- 89
2019-03-31 17:00:00 15.9 9 Sudoeste 19 Oeste 0 -- -- 88
2019-03-31 16:00:00 15.1 9 Oeste 22 Sudoeste 0.2 -- -- 93
2019-03-31 15:00:00 15.4 12 Sudoeste 21 Sudoeste 0 -- -- 91
2019-03-31 14:00:00 15.1 9 Sudoeste 17 Sudoeste 0.4 -- -- 94
2019-03-31 13:00:00 14.6 8 Sudoeste 18 Oeste 1 -- -- 96
2019-03-31 12:00:00 14.6 7 Oeste 12 Noroeste 0.6 -- -- 95
2019-03-31 11:00:00 14.4 4 Oeste 8 Oeste 0.2 -- -- 96
2019-03-31 10:00:00 14.2 0 Calma 3 Nordeste 0.4 -- -- 97
2019-03-31 09:00:00 13.9 2 Norte 5 Noroeste 0 -- -- 96
2019-03-31 08:00:00 14 0 Calma 8 Oeste 0 -- -- 94
2019-03-31 07:00:00 14 3 Oeste 15 Noroeste 0 -- -- 94
2019-03-31 06:00:00 14.1 4 Sudoeste 9 Sudoeste 0 -- -- 95
2019-03-31 05:00:00 13.8 3 Sudoeste 7 Norte 0.2 -- -- 96
2019-03-31 03:00:00 13.8 0 Calma 7 Sudeste 0.2 -- -- 94
2019-03-31 01:00:00 14.1 2 Este 8 Sudeste 0.4 -- -- 92
2019-03-31 00:00:00 14.4 3 Sudeste 6 Sur 0.2 -- -- 93
2019-03-30 23:00:00 14.7 4 Nordeste 15 Sur 1 -- -- 90
2019-03-30 22:00:00 15.4 3 Sudoeste 8 Sudeste 0 -- -- 80
2019-03-30 21:00:00 15.7 5 Oeste 13 Oeste 0 -- -- 77
2019-03-30 20:00:00 15.6 4 Noroeste 15 Noroeste 0 -- -- 77
2019-03-30 19:00:00 16.2 8 Oeste 24 Oeste 0 -- -- 75
2019-03-30 18:00:00 16.8 9 Oeste 20 Sur 0 -- -- 70
2019-03-30 17:00:00 17.4 10 Sur 36 Sudeste 0 -- -- 64
2019-03-30 16:00:00 17.9 25 Sur 39 Sur 0 -- -- 65
2019-03-30 15:00:00 18.8 23 Sur 37 Sur 0 -- -- 59
2019-03-30 14:00:00 18.4 24 Sudeste 44 Sudeste 0 -- -- 59
2019-03-30 13:00:00 19.1 21 Sur 35 Sur 0 -- -- 58
2019-03-30 12:00:00 18.5 17 Sur 32 Sudeste 0 -- -- 59
2019-03-30 11:00:00 17.8 16 Sur 23 Sudoeste 0 -- -- 60
2019-03-30 10:00:00 16.2 10 Sur 16 Sur 0 -- -- 66
2019-03-30 09:00:00 14.2 3 Sur 11 Nordeste 0 -- -- 80
2019-03-30 08:00:00 10.7 8 Nordeste 11 Norte 0 -- -- 95
2019-03-30 07:00:00 9.3 7 Nordeste 11 Nordeste 0 -- -- 94
2019-03-30 06:00:00 9.4 3 Norte 7 Norte 0 -- -- 92
2019-03-30 05:00:00 10.4 4 Norte 9 Este 0 -- -- 90
2019-03-30 04:00:00 11 5 Este 8 Este 0 -- -- 93
2019-03-30 03:00:00 10.2 4 Norte 12 Nordeste 0 -- -- 93
2019-03-30 02:00:00 9.5 5 Nordeste 10 Nordeste 0 -- -- 93
2019-03-30 01:00:00 9.4 6 Nordeste 8 Nordeste 0 -- -- 92
2019-03-30 00:00:00 9.9 6 Nordeste 8 Nordeste 0 -- -- 90
2019-03-29 23:00:00 10.9 3 Nordeste 5 Este 0 -- -- 86
2019-03-29 22:00:00 13.3 0 Calma 10 Sur 0 -- -- 77
2019-03-29 21:00:00 14.6 3 Sur 13 Sudeste 0 -- -- 69
2019-03-29 20:00:00 15.1 9 Sudeste 20 Sur 0 -- -- 65
2019-03-29 19:00:00 16.3 13 Sur 25 Sudeste 0 -- -- 59
2019-03-29 18:00:00 17.3 18 Sur 30 Sur 0 -- -- 57
2019-03-29 17:00:00 18 18 Sur 35 Sudeste 0 -- -- 53
2019-03-29 16:00:00 18.5 21 Sudeste 39 Sudeste 0 -- -- 52
2019-03-29 15:00:00 18.7 22 Sur 40 Sur 0 -- -- 52
2019-03-29 14:00:00 18.9 21 Sudeste 40 Sudeste 0 -- -- 46
2019-03-29 13:00:00 19.3 21 Sur 36 Sudeste 0 -- -- 43
2019-03-29 12:00:00 18.7 16 Sur 25 Sudeste 0 -- -- 45
2019-03-29 11:00:00 17.9 9 Sudoeste 16 Sur 0 -- -- 41
2019-03-29 10:00:00 18 3 Sur 8 Sudoeste 0 -- -- 33
2019-03-29 09:00:00 13.6 4 Norte 14 Nordeste 0 -- -- 40
2019-03-29 08:00:00 8.4 6 Nordeste 10 Norte 0 -- -- 57
2019-03-29 07:00:00 8.2 9 Nordeste 17 Norte 0 -- -- 51
2019-03-29 06:00:00 8 10 Nordeste 18 Nordeste 0 -- -- 56
2019-03-29 05:00:00 8.2 11 Nordeste 16 Nordeste 0 -- -- 54
2019-03-29 04:00:00 7.4 9 Nordeste 15 Nordeste 0 -- -- 63
2019-03-29 03:00:00 8.4 9 Nordeste 16 Nordeste 0 -- -- 61
2019-03-29 02:00:00 8 11 Nordeste 15 Nordeste 0 -- -- 69
2019-03-29 01:00:00 8.4 7 Nordeste 15 Nordeste 0 -- -- 82
2019-03-29 00:00:00 8.6 9 Nordeste 12 Nordeste 0 -- -- 89
2019-03-28 23:00:00 8.8 6 Norte 9 Norte 0 -- -- 87
2019-03-28 22:00:00 10.3 3 Norte 9 Nordeste 0 -- -- 82
2019-03-28 21:00:00 14.1 4 Este 28 Sudeste 0 -- -- 59
2019-03-28 20:00:00 14.6 11 Sudeste 32 Sudeste 0 -- -- 63
2019-03-28 19:00:00 15.5 17 Sudeste 37 Sudeste 0 -- -- 56
2019-03-28 18:00:00 16.8 19 Sudeste 35 Sudeste 0 -- -- 45
2019-03-28 17:00:00 17.7 19 Sudeste 42 Sudeste 0 -- -- 43
2019-03-28 16:00:00 17.9 22 Sudeste 45 Sudeste 0 -- -- 42
2019-03-28 15:00:00 18.2 24 Sudeste 42 Sudeste 0 -- -- 30
2019-03-28 14:00:00 18.7 24 Sur 60 Este 0 -- -- 35
2019-03-28 13:00:00 18.3 25 Sudeste 42 Sudeste 0 -- -- 24
2019-03-28 12:00:00 18.1 21 Sur 39 Sur 0 -- -- 32
2019-03-28 11:00:00 18.5 17 Sudeste 35 Sudeste 0 -- -- 23
2019-03-28 10:00:00 17.5 15 Sur 28 Sudeste 0 -- -- 21
2019-03-28 09:00:00 13.5 8 Nordeste 19 Nordeste 0 -- -- 54
2019-03-28 08:00:00 9.6 11 Nordeste 19 Nordeste 0 -- -- 75
2019-03-28 07:00:00 8.1 12 Nordeste 17 Nordeste 0 -- -- 82
2019-03-28 06:00:00 8 10 Nordeste 16 Nordeste 0 -- -- 84
2019-03-28 05:00:00 8.4 8 Nordeste 14 Nordeste 0 -- -- 83
2019-03-28 04:00:00 9 9 Nordeste 15 Nordeste 0 -- -- 83
2019-03-28 03:00:00 9.2 9 Nordeste 13 Nordeste 0 -- -- 85
2019-03-28 02:00:00 9 7 Nordeste 13 Nordeste 0 -- -- 87
2019-03-28 01:00:00 9.1 5 Nordeste 11 Nordeste 0 -- -- 86
2019-03-28 00:00:00 10.3 8 Nordeste 11 Nordeste 0 -- -- 82
2019-03-27 23:00:00 13.3 3 Nordeste 19 Este 0 -- -- 64
2019-03-27 22:00:00 13.9 6 Sudeste 17 Sudeste 0 -- -- 62
2019-03-27 21:00:00 14.7 4 Sudeste 17 Sudeste 0 -- -- 56
2019-03-27 20:00:00 15.2 10 Sudeste 26 Sudeste 0 -- -- 56
2019-03-27 19:00:00 16 14 Sur 32 Sudeste 0 -- -- 55
2019-03-27 18:00:00 17.3 15 Sudeste 36 Sudeste 0 -- -- 48
2019-03-27 17:00:00 18 21 Sudeste 41 Sudeste 0 -- -- 42
2019-03-27 16:00:00 18.5 22 Sudeste 46 Sudeste 0 -- -- 38
2019-03-27 15:00:00 18.8 25 Sudeste 48 Sudeste 0 -- -- 37
2019-03-27 14:00:00 18.9 25 Sudeste 43 Sudeste 0 -- -- 33
2019-03-27 13:00:00 19.3 22 Sudeste 42 Sudeste 0 -- -- 30
2019-03-27 12:00:00 20 12 Sur 30 Sudeste 0 -- -- 23
2019-03-27 11:00:00 18.7 9 Sudoeste 17 Sudoeste 0 -- -- 23
2019-03-27 10:00:00 18.1 5 Sur 10 Sur 0 -- -- 26
2019-03-27 09:00:00 14.2 2 Este 8 Norte 0 -- -- 51
2019-03-27 08:00:00 8.4 4 Nordeste 10 Norte 0 -- -- 77
2019-03-27 07:00:00 6.8 5 Oeste 11 Noroeste 0 -- -- 82
2019-03-27 06:00:00 7.9 4 Norte 14 Norte 0 -- -- 80
2019-03-27 05:00:00 9.2 8 Nordeste 13 Nordeste 0 -- -- 81
2019-03-27 04:00:00 8.5 6 Norte 9 Norte 0 -- -- 87
2019-03-27 03:00:00 9.1 7 Norte 13 Norte 0 -- -- 84
2019-03-27 02:00:00 10.1 3 Oeste 8 Oeste 0 -- -- 81
2019-03-27 01:00:00 12 4 Este 14 Sudoeste 0 -- -- 76
2019-03-27 00:00:00 12.3 5 Norte 11 Sur 0 -- -- 88